sensor_id;sensor_type;location;lat;lon;timestamp;temperature;humidity
68051;DHT22;54839;51.364;7.246;2023-11-21T00:01:45;7.20;99.90
68051;DHT22;54839;51.364;7.246;2023-11-21T00:04:11;7.20;99.90
68051;DHT22;54839;51.364;7.246;2023-11-21T00:06:36;7.30;99.90
68051;DHT22;54839;51.364;7.246;2023-11-21T00:09:02;7.20;99.90
68051;DHT22;54839;51.364;7.246;2023-11-21T00:11:28;7.20;99.90
68051;DHT22;54839;51.364;7.246;2023-11-21T00:13:54;7.20;99.90
68051;DHT22;54839;51.364;7.246;2023-11-21T00:16:20;7.20;99.90
68051;DHT22;54839;51.364;7.246;2023-11-21T00:18:47;7.30;99.90
68051;DHT22;54839;51.364;7.246;2023-11-21T00:21:13;7.20;99.90
68051;DHT22;54839;51.364;7.246;2023-11-21T00:23:38;7.10;99.90
68051;DHT22;54839;51.364;7.246;2023-11-21T00:26:04;7.10;99.90
68051;DHT22;54839;51.364;7.246;2023-11-21T00:28:29;7.10;99.90
68051;DHT22;54839;51.364;7.246;2023-11-21T00:30:55;7.10;99.90
68051;DHT22;54839;51.364;7.246;2023-11-21T00:33:21;7.10;99.90
68051;DHT22;54839;51.364;7.246;2023-11-21T00:35:46;7.20;99.90
68051;DHT22;54839;51.364;7.246;2023-11-21T00:38:12;7.20;99.90
68051;DHT22;54839;51.364;7.246;2023-11-21T00:40:37;7.30;99.90
68051;DHT22;54839;51.364;7.246;2023-11-21T00:43:03;7.30;99.90
68051;DHT22;54839;51.364;7.246;2023-11-21T00:45:28;7.30;99.90
68051;DHT22;54839;51.364;7.246;2023-11-21T00:47:54;7.30;99.90
68051;DHT22;54839;51.364;7.246;2023-11-21T00:50:22;7.30;99.90
68051;DHT22;54839;51.364;7.246;2023-11-21T00:52:47;7.30;99.90
68051;DHT22;54839;51.364;7.246;2023-11-21T00:55:13;7.20;99.90
68051;DHT22;54839;51.364;7.246;2023-11-21T00:57:39;7.20;99.90
68051;DHT22;54839;51.364;7.246;2023-11-21T01:00:05;7.10;99.90
68051;DHT22;54839;51.364;7.246;2023-11-21T01:02:39;7.10;99.90
68051;DHT22;54839;51.364;7.246;2023-11-21T01:05:05;7.20;99.90
68051;DHT22;54839;51.364;7.246;2023-11-21T01:07:33;7.10;99.90
68051;DHT22;54839;51.364;7.246;2023-11-21T01:09:58;7.00;99.90
68051;DHT22;54839;51.364;7.246;2023-11-21T01:12:24;7.00;99.90
68051;DHT22;54839;51.364;7.246;2023-11-21T01:14:50;7.00;99.90
68051;DHT22;54839;51.364;7.246;2023-11-21T01:17:16;7.00;99.90
68051;DHT22;54839;51.364;7.246;2023-11-21T01:19:42;6.90;99.90
68051;DHT22;54839;51.364;7.246;2023-11-21T01:22:07;6.90;99.90
68051;DHT22;54839;51.364;7.246;2023-11-21T01:24:33;6.80;99.90
68051;DHT22;54839;51.364;7.246;2023-11-21T01:26:59;6.90;99.90
68051;DHT22;54839;51.364;7.246;2023-11-21T01:29:25;6.90;99.90
68051;DHT22;54839;51.364;7.246;2023-11-21T01:31:50;6.90;99.90
68051;DHT22;54839;51.364;7.246;2023-11-21T01:34:17;6.90;99.90
68051;DHT22;54839;51.364;7.246;2023-11-21T01:36:42;6.90;99.90
68051;DHT22;54839;51.364;7.246;2023-11-21T01:39:08;7.00;99.90
68051;DHT22;54839;51.364;7.246;2023-11-21T01:41:34;7.10;99.90
68051;DHT22;54839;51.364;7.246;2023-11-21T01:44:00;7.10;99.90
68051;DHT22;54839;51.364;7.246;2023-11-21T01:46:26;7.10;99.90
68051;DHT22;54839;51.364;7.246;2023-11-21T01:48:52;7.20;99.90
68051;DHT22;54839;51.364;7.246;2023-11-21T01:51:19;7.10;99.90
68051;DHT22;54839;51.364;7.246;2023-11-21T01:53:45;7.10;99.90
68051;DHT22;54839;51.364;7.246;2023-11-21T01:56:12;7.10;99.90
68051;DHT22;54839;51.364;7.246;2023-11-21T01:58:39;7.20;99.90
68051;DHT22;54839;51.364;7.246;2023-11-21T02:01:04;7.10;99.90
68051;DHT22;54839;51.364;7.246;2023-11-21T02:03:30;7.00;99.90
68051;DHT22;54839;51.364;7.246;2023-11-21T02:05:56;7.10;99.90
68051;DHT22;54839;51.364;7.246;2023-11-21T02:08:22;7.00;99.90
68051;DHT22;54839;51.364;7.246;2023-11-21T02:10:47;7.00;99.90
68051;DHT22;54839;51.364;7.246;2023-11-21T02:13:13;7.00;99.90
68051;DHT22;54839;51.364;7.246;2023-11-21T02:15:39;6.90;99.90
68051;DHT22;54839;51.364;7.246;2023-11-21T02:18:05;7.00;99.90
68051;DHT22;54839;51.364;7.246;2023-11-21T02:20:31;7.00;99.90
68051;DHT22;54839;51.364;7.246;2023-11-21T02:23:00;7.10;99.90
68051;DHT22;54839;51.364;7.246;2023-11-21T02:25:30;7.10;99.90
68051;DHT22;54839;51.364;7.246;2023-11-21T02:27:58;7.10;99.90
68051;DHT22;54839;51.364;7.246;2023-11-21T02:30:24;7.00;99.90
68051;DHT22;54839;51.364;7.246;2023-11-21T02:32:54;7.10;99.90
68051;DHT22;54839;51.364;7.246;2023-11-21T02:35:20;7.10;99.90
68051;DHT22;54839;51.364;7.246;2023-11-21T02:37:47;7.00;99.90
68051;DHT22;54839;51.364;7.246;2023-11-21T02:40:12;7.10;99.90
68051;DHT22;54839;51.364;7.246;2023-11-21T02:42:41;7.00;99.90
68051;DHT22;54839;51.364;7.246;2023-11-21T02:45:08;7.10;99.90
68051;DHT22;54839;51.364;7.246;2023-11-21T02:47:34;7.00;99.90
68051;DHT22;54839;51.364;7.246;2023-11-21T02:49:59;7.00;99.90
68051;DHT22;54839;51.364;7.246;2023-11-21T02:52:25;7.10;99.90
68051;DHT22;54839;51.364;7.246;2023-11-21T02:54:50;7.10;99.90
68051;DHT22;54839;51.364;7.246;2023-11-21T02:57:16;7.10;99.90
68051;DHT22;54839;51.364;7.246;2023-11-21T02:59:42;7.10;99.90
68051;DHT22;54839;51.364;7.246;2023-11-21T03:02:07;7.20;99.90
68051;DHT22;54839;51.364;7.246;2023-11-21T03:04:36;7.20;99.90
68051;DHT22;54839;51.364;7.246;2023-11-21T03:07:01;7.30;99.90
68051;DHT22;54839;51.364;7.246;2023-11-21T03:09:27;7.20;99.90
68051;DHT22;54839;51.364;7.246;2023-11-21T03:11:53;7.30;99.90
68051;DHT22;54839;51.364;7.246;2023-11-21T03:14:19;7.30;99.90
68051;DHT22;54839;51.364;7.246;2023-11-21T03:16:44;7.40;99.90
68051;DHT22;54839;51.364;7.246;2023-11-21T03:19:11;7.30;99.90
68051;DHT22;54839;51.364;7.246;2023-11-21T03:21:36;7.30;99.90
68051;DHT22;54839;51.364;7.246;2023-11-21T03:24:02;7.40;99.90
68051;DHT22;54839;51.364;7.246;2023-11-21T03:26:28;7.40;99.90
68051;DHT22;54839;51.364;7.246;2023-11-21T03:28:55;7.40;99.90
68051;DHT22;54839;51.364;7.246;2023-11-21T03:31:20;7.40;99.90
68051;DHT22;54839;51.364;7.246;2023-11-21T03:33:46;7.40;99.90
68051;DHT22;54839;51.364;7.246;2023-11-21T03:36:12;7.40;99.90
68051;DHT22;54839;51.364;7.246;2023-11-21T03:38:40;7.40;99.90
68051;DHT22;54839;51.364;7.246;2023-11-21T03:41:06;7.40;99.90
68051;DHT22;54839;51.364;7.246;2023-11-21T03:43:32;7.40;99.90
68051;DHT22;54839;51.364;7.246;2023-11-21T03:45:57;7.40;99.90
68051;DHT22;54839;51.364;7.246;2023-11-21T03:48:23;7.30;99.90
68051;DHT22;54839;51.364;7.246;2023-11-21T03:50:48;7.30;99.90
68051;DHT22;54839;51.364;7.246;2023-11-21T03:53:14;7.20;99.90
68051;DHT22;54839;51.364;7.246;2023-11-21T03:55:40;7.20;99.90
68051;DHT22;54839;51.364;7.246;2023-11-21T03:58:05;7.20;99.90
68051;DHT22;54839;51.364;7.246;2023-11-21T04:00:31;7.30;99.90
68051;DHT22;54839;51.364;7.246;2023-11-21T04:02:56;7.20;99.90
68051;DHT22;54839;51.364;7.246;2023-11-21T04:05:23;7.30;99.90
68051;DHT22;54839;51.364;7.246;2023-11-21T04:07:51;7.30;99.90
68051;DHT22;54839;51.364;7.246;2023-11-21T04:10:17;7.30;99.90
68051;DHT22;54839;51.364;7.246;2023-11-21T04:12:43;7.30;99.90
68051;DHT22;54839;51.364;7.246;2023-11-21T04:15:10;7.60;99.90
68051;DHT22;54839;51.364;7.246;2023-11-21T04:17:36;7.40;99.90
68051;DHT22;54839;51.364;7.246;2023-11-21T04:20:03;7.50;99.90
68051;DHT22;54839;51.364;7.246;2023-11-21T04:22:31;7.50;99.90
68051;DHT22;54839;51.364;7.246;2023-11-21T04:24:56;7.40;99.90
68051;DHT22;54839;51.364;7.246;2023-11-21T04:27:22;7.40;99.90
68051;DHT22;54839;51.364;7.246;2023-11-21T04:29:48;7.30;99.90
68051;DHT22;54839;51.364;7.246;2023-11-21T04:32:13;7.40;99.90
68051;DHT22;54839;51.364;7.246;2023-11-21T04:34:39;7.40;99.90
68051;DHT22;54839;51.364;7.246;2023-11-21T04:37:04;7.40;99.90
68051;DHT22;54839;51.364;7.246;2023-11-21T04:39:31;7.40;99.90
68051;DHT22;54839;51.364;7.246;2023-11-21T04:41:57;7.40;99.90
68051;DHT22;54839;51.364;7.246;2023-11-21T04:44:22;7.50;99.90
68051;DHT22;54839;51.364;7.246;2023-11-21T04:46:48;7.40;99.90
68051;DHT22;54839;51.364;7.246;2023-11-21T04:49:14;7.50;99.90
68051;DHT22;54839;51.364;7.246;2023-11-21T04:51:40;7.50;99.90
68051;DHT22;54839;51.364;7.246;2023-11-21T04:54:05;7.50;99.90
68051;DHT22;54839;51.364;7.246;2023-11-21T04:56:31;7.40;99.90
68051;DHT22;54839;51.364;7.246;2023-11-21T04:58:57;7.50;99.90
68051;DHT22;54839;51.364;7.246;2023-11-21T05:01:22;7.40;99.90
68051;DHT22;54839;51.364;7.246;2023-11-21T05:03:48;7.40;99.90
68051;DHT22;54839;51.364;7.246;2023-11-21T05:06:14;7.40;99.90
68051;DHT22;54839;51.364;7.246;2023-11-21T05:08:40;7.40;99.90
68051;DHT22;54839;51.364;7.246;2023-11-21T05:11:06;7.40;99.90
68051;DHT22;54839;51.364;7.246;2023-11-21T05:13:34;7.30;99.90
68051;DHT22;54839;51.364;7.246;2023-11-21T05:15:59;7.20;99.90
68051;DHT22;54839;51.364;7.246;2023-11-21T05:18:25;7.00;99.90
68051;DHT22;54839;51.364;7.246;2023-11-21T05:20:55;6.90;99.90
68051;DHT22;54839;51.364;7.246;2023-11-21T05:23:21;6.80;99.90
68051;DHT22;54839;51.364;7.246;2023-11-21T05:25:47;6.70;99.90
68051;DHT22;54839;51.364;7.246;2023-11-21T05:28:12;6.60;99.90
68051;DHT22;54839;51.364;7.246;2023-11-21T05:30:38;6.50;99.90
68051;DHT22;54839;51.364;7.246;2023-11-21T05:33:05;6.50;99.90
68051;DHT22;54839;51.364;7.246;2023-11-21T05:35:30;6.40;99.90
68051;DHT22;54839;51.364;7.246;2023-11-21T05:37:56;6.50;99.90
68051;DHT22;54839;51.364;7.246;2023-11-21T05:40:22;6.50;99.90
68051;DHT22;54839;51.364;7.246;2023-11-21T05:42:48;6.50;99.90
68051;DHT22;54839;51.364;7.246;2023-11-21T05:45:14;6.50;99.90
68051;DHT22;54839;51.364;7.246;2023-11-21T05:47:42;6.60;99.90
68051;DHT22;54839;51.364;7.246;2023-11-21T05:50:10;6.70;99.90
68051;DHT22;54839;51.364;7.246;2023-11-21T05:52:38;6.80;99.90
68051;DHT22;54839;51.364;7.246;2023-11-21T05:55:05;6.70;99.90
68051;DHT22;54839;51.364;7.246;2023-11-21T05:57:36;6.80;99.90
68051;DHT22;54839;51.364;7.246;2023-11-21T06:00:06;6.70;99.90
68051;DHT22;54839;51.364;7.246;2023-11-21T06:02:45;6.70;99.90
68051;DHT22;54839;51.364;7.246;2023-11-21T06:05:11;6.90;99.90
68051;DHT22;54839;51.364;7.246;2023-11-21T06:07:37;6.80;99.90
68051;DHT22;54839;51.364;7.246;2023-11-21T06:10:07;6.80;99.90
68051;DHT22;54839;51.364;7.246;2023-11-21T06:12:36;6.80;99.90
68051;DHT22;54839;51.364;7.246;2023-11-21T06:15:03;6.70;99.90
68051;DHT22;54839;51.364;7.246;2023-11-21T06:17:31;6.80;99.90
68051;DHT22;54839;51.364;7.246;2023-11-21T06:19:57;6.80;99.90
68051;DHT22;54839;51.364;7.246;2023-11-21T06:22:23;6.80;99.90
68051;DHT22;54839;51.364;7.246;2023-11-21T06:24:48;6.70;99.90
68051;DHT22;54839;51.364;7.246;2023-11-21T06:27:14;6.80;99.90
68051;DHT22;54839;51.364;7.246;2023-11-21T06:29:39;6.90;99.90
68051;DHT22;54839;51.364;7.246;2023-11-21T06:32:07;6.90;99.90
68051;DHT22;54839;51.364;7.246;2023-11-21T06:34:33;7.00;99.90
68051;DHT22;54839;51.364;7.246;2023-11-21T06:36:59;7.10;99.90
68051;DHT22;54839;51.364;7.246;2023-11-21T06:39:25;7.10;99.90
68051;DHT22;54839;51.364;7.246;2023-11-21T06:41:50;7.10;99.90
68051;DHT22;54839;51.364;7.246;2023-11-21T06:44:16;7.20;99.90
68051;DHT22;54839;51.364;7.246;2023-11-21T06:46:41;7.20;99.90
68051;DHT22;54839;51.364;7.246;2023-11-21T06:49:08;7.20;99.90
68051;DHT22;54839;51.364;7.246;2023-11-21T06:51:33;7.30;99.90
68051;DHT22;54839;51.364;7.246;2023-11-21T06:53:59;7.10;99.90
68051;DHT22;54839;51.364;7.246;2023-11-21T06:56:24;7.20;99.90
68051;DHT22;54839;51.364;7.246;2023-11-21T06:58:51;7.10;99.90
68051;DHT22;54839;51.364;7.246;2023-11-21T07:01:20;7.20;99.90
68051;DHT22;54839;51.364;7.246;2023-11-21T07:03:45;7.20;99.90
68051;DHT22;54839;51.364;7.246;2023-11-21T07:06:11;7.20;99.90
68051;DHT22;54839;51.364;7.246;2023-11-21T07:08:37;7.30;99.90
68051;DHT22;54839;51.364;7.246;2023-11-21T07:11:03;7.30;99.90
68051;DHT22;54839;51.364;7.246;2023-11-21T07:13:29;7.30;99.90
68051;DHT22;54839;51.364;7.246;2023-11-21T07:15:55;7.30;99.90
68051;DHT22;54839;51.364;7.246;2023-11-21T07:18:21;7.30;99.90
68051;DHT22;54839;51.364;7.246;2023-11-21T07:20:46;7.20;99.90
68051;DHT22;54839;51.364;7.246;2023-11-21T07:23:12;7.20;99.90
68051;DHT22;54839;51.364;7.246;2023-11-21T07:25:37;7.10;99.90
68051;DHT22;54839;51.364;7.246;2023-11-21T07:28:03;7.20;99.90
68051;DHT22;54839;51.364;7.246;2023-11-21T07:30:30;7.20;99.90
68051;DHT22;54839;51.364;7.246;2023-11-21T07:32:56;7.10;99.90
68051;DHT22;54839;51.364;7.246;2023-11-21T07:35:22;7.20;99.90
68051;DHT22;54839;51.364;7.246;2023-11-21T07:37:47;7.20;99.90
68051;DHT22;54839;51.364;7.246;2023-11-21T07:40:14;7.40;99.90
68051;DHT22;54839;51.364;7.246;2023-11-21T07:42:40;7.40;99.90
68051;DHT22;54839;51.364;7.246;2023-11-21T07:45:08;7.50;99.90
68051;DHT22;54839;51.364;7.246;2023-11-21T07:47:33;7.60;99.90
68051;DHT22;54839;51.364;7.246;2023-11-21T07:50:00;7.60;99.90
68051;DHT22;54839;51.364;7.246;2023-11-21T07:52:26;7.60;99.90
68051;DHT22;54839;51.364;7.246;2023-11-21T07:54:52;7.60;99.90
68051;DHT22;54839;51.364;7.246;2023-11-21T07:57:17;7.70;99.90
68051;DHT22;54839;51.364;7.246;2023-11-21T07:59:43;7.60;99.90
68051;DHT22;54839;51.364;7.246;2023-11-21T08:02:10;7.60;99.90
68051;DHT22;54839;51.364;7.246;2023-11-21T08:04:35;7.70;99.90
68051;DHT22;54839;51.364;7.246;2023-11-21T08:07:01;7.70;99.90
68051;DHT22;54839;51.364;7.246;2023-11-21T08:09:27;7.70;99.90
68051;DHT22;54839;51.364;7.246;2023-11-21T08:11:53;7.70;99.90
68051;DHT22;54839;51.364;7.246;2023-11-21T08:14:19;7.80;99.90
68051;DHT22;54839;51.364;7.246;2023-11-21T08:16:45;8.00;99.90
68051;DHT22;54839;51.364;7.246;2023-11-21T08:19:11;8.20;99.90
68051;DHT22;54839;51.364;7.246;2023-11-21T08:21:37;8.30;99.90
68051;DHT22;54839;51.364;7.246;2023-11-21T08:24:05;8.40;99.90
68051;DHT22;54839;51.364;7.246;2023-11-21T08:26:31;8.60;99.90
68051;DHT22;54839;51.364;7.246;2023-11-21T08:28:56;8.60;99.90
68051;DHT22;54839;51.364;7.246;2023-11-21T08:31:25;8.60;99.90
68051;DHT22;54839;51.364;7.246;2023-11-21T08:33:51;8.70;99.90
68051;DHT22;54839;51.364;7.246;2023-11-21T08:36:17;8.70;99.90
68051;DHT22;54839;51.364;7.246;2023-11-21T08:38:42;8.70;99.90
68051;DHT22;54839;51.364;7.246;2023-11-21T08:41:08;8.70;99.90
68051;DHT22;54839;51.364;7.246;2023-11-21T08:43:35;8.80;99.90
68051;DHT22;54839;51.364;7.246;2023-11-21T08:46:01;8.80;99.90
68051;DHT22;54839;51.364;7.246;2023-11-21T08:48:26;8.80;99.90
68051;DHT22;54839;51.364;7.246;2023-11-21T08:50:54;8.90;99.90
68051;DHT22;54839;51.364;7.246;2023-11-21T08:53:19;9.00;99.90
68051;DHT22;54839;51.364;7.246;2023-11-21T08:55:45;9.10;99.90
68051;DHT22;54839;51.364;7.246;2023-11-21T08:58:10;9.10;99.90
68051;DHT22;54839;51.364;7.246;2023-11-21T09:00:39;9.10;99.90
68051;DHT22;54839;51.364;7.246;2023-11-21T09:03:05;9.00;99.90
68051;DHT22;54839;51.364;7.246;2023-11-21T09:05:37;9.10;99.90
68051;DHT22;54839;51.364;7.246;2023-11-21T09:08:03;9.20;99.90
68051;DHT22;54839;51.364;7.246;2023-11-21T09:10:29;9.20;99.90
68051;DHT22;54839;51.364;7.246;2023-11-21T09:12:54;9.20;99.90
68051;DHT22;54839;51.364;7.246;2023-11-21T09:15:20;9.40;99.90
68051;DHT22;54839;51.364;7.246;2023-11-21T09:17:45;9.20;99.90
68051;DHT22;54839;51.364;7.246;2023-11-21T09:20:11;9.20;99.90
68051;DHT22;54839;51.364;7.246;2023-11-21T09:22:37;9.20;99.90
68051;DHT22;54839;51.364;7.246;2023-11-21T09:25:03;9.10;99.90
68051;DHT22;54839;51.364;7.246;2023-11-21T09:27:31;9.20;99.90
68051;DHT22;54839;51.364;7.246;2023-11-21T09:29:57;9.00;99.90
68051;DHT22;54839;51.364;7.246;2023-11-21T09:32:23;9.10;99.90
68051;DHT22;54839;51.364;7.246;2023-11-21T09:34:50;9.10;99.90
68051;DHT22;54839;51.364;7.246;2023-11-21T09:37:16;9.20;99.90
68051;DHT22;54839;51.364;7.246;2023-11-21T09:39:42;9.30;99.90
68051;DHT22;54839;51.364;7.246;2023-11-21T09:42:10;9.40;99.90
68051;DHT22;54839;51.364;7.246;2023-11-21T09:47:22;9.30;99.90
68051;DHT22;54839;51.364;7.246;2023-11-21T09:49:48;9.50;99.90
68051;DHT22;54839;51.364;7.246;2023-11-21T09:52:22;9.40;99.90
68051;DHT22;54839;51.364;7.246;2023-11-21T09:54:51;9.30;99.90
68051;DHT22;54839;51.364;7.246;2023-11-21T09:57:19;9.50;99.90
68051;DHT22;54839;51.364;7.246;2023-11-21T09:59:47;9.70;99.90
68051;DHT22;54839;51.364;7.246;2023-11-21T10:02:17;9.80;99.90
68051;DHT22;54839;51.364;7.246;2023-11-21T10:04:44;9.60;99.90
68051;DHT22;54839;51.364;7.246;2023-11-21T10:07:12;9.80;99.90
68051;DHT22;54839;51.364;7.246;2023-11-21T10:09:40;10.00;99.90
68051;DHT22;54839;51.364;7.246;2023-11-21T10:12:07;10.10;99.90
68051;DHT22;54839;51.364;7.246;2023-11-21T10:14:35;10.10;99.90
68051;DHT22;54839;51.364;7.246;2023-11-21T10:17:02;10.00;99.90
68051;DHT22;54839;51.364;7.246;2023-11-21T10:19:29;9.90;99.90
68051;DHT22;54839;51.364;7.246;2023-11-21T10:21:55;9.90;99.90
68051;DHT22;54839;51.364;7.246;2023-11-21T10:24:23;9.90;99.90
68051;DHT22;54839;51.364;7.246;2023-11-21T10:26:48;10.00;99.90
68051;DHT22;54839;51.364;7.246;2023-11-21T10:29:16;10.00;99.90
68051;DHT22;54839;51.364;7.246;2023-11-21T10:31:42;9.90;99.90
68051;DHT22;54839;51.364;7.246;2023-11-21T10:34:18;9.90;99.90
68051;DHT22;54839;51.364;7.246;2023-11-21T10:36:44;9.80;99.90
68051;DHT22;54839;51.364;7.246;2023-11-21T10:39:09;9.90;99.90
68051;DHT22;54839;51.364;7.246;2023-11-21T10:41:38;9.90;99.90
68051;DHT22;54839;51.364;7.246;2023-11-21T10:44:05;9.90;99.90
68051;DHT22;54839;51.364;7.246;2023-11-21T10:46:32;9.80;99.90
68051;DHT22;54839;51.364;7.246;2023-11-21T10:48:59;9.70;99.90
68051;DHT22;54839;51.364;7.246;2023-11-21T10:51:25;9.70;99.90
68051;DHT22;54839;51.364;7.246;2023-11-21T10:53:54;9.90;99.90
68051;DHT22;54839;51.364;7.246;2023-11-21T10:56:23;10.10;99.90
68051;DHT22;54839;51.364;7.246;2023-11-21T10:58:50;10.30;99.90
68051;DHT22;54839;51.364;7.246;2023-11-21T11:01:18;10.40;99.90
68051;DHT22;54839;51.364;7.246;2023-11-21T11:03:46;10.40;99.90
68051;DHT22;54839;51.364;7.246;2023-11-21T11:06:13;10.70;99.90
68051;DHT22;54839;51.364;7.246;2023-11-21T11:08:40;10.90;99.90
68051;DHT22;54839;51.364;7.246;2023-11-21T11:11:07;11.10;99.90
68051;DHT22;54839;51.364;7.246;2023-11-21T11:13:33;11.20;99.90
68051;DHT22;54839;51.364;7.246;2023-11-21T11:16:00;11.20;99.90
68051;DHT22;54839;51.364;7.246;2023-11-21T11:18:28;11.30;99.90
68051;DHT22;54839;51.364;7.246;2023-11-21T11:20:59;11.00;99.90
68051;DHT22;54839;51.364;7.246;2023-11-21T11:29:20;10.20;99.90
68051;DHT22;54839;51.364;7.246;2023-11-21T11:37:53;10.30;99.90
68051;DHT22;54839;51.364;7.246;2023-11-21T11:40:20;10.30;99.90
68051;DHT22;54839;51.364;7.246;2023-11-21T11:42:58;10.50;99.90
68051;DHT22;54839;51.364;7.246;2023-11-21T11:45:33;10.70;99.90
68051;DHT22;54839;51.364;7.246;2023-11-21T11:48:00;10.80;99.90
68051;DHT22;54839;51.364;7.246;2023-11-21T11:50:26;10.80;99.90
68051;DHT22;54839;51.364;7.246;2023-11-21T11:52:57;10.70;99.90
68051;DHT22;54839;51.364;7.246;2023-11-21T11:55:37;10.70;99.90
68051;DHT22;54839;51.364;7.246;2023-11-21T11:58:06;10.50;99.90
68051;DHT22;54839;51.364;7.246;2023-11-21T12:02:59;10.50;99.90
68051;DHT22;54839;51.364;7.246;2023-11-21T12:05:29;10.50;99.90
68051;DHT22;54839;51.364;7.246;2023-11-21T12:07:59;10.40;99.90
68051;DHT22;54839;51.364;7.246;2023-11-21T12:10:30;10.40;99.90
68051;DHT22;54839;51.364;7.246;2023-11-21T12:13:11;10.40;99.90
68051;DHT22;54839;51.364;7.246;2023-11-21T12:15:40;10.50;99.90
68051;DHT22;54839;51.364;7.246;2023-11-21T12:18:07;10.60;99.90
68051;DHT22;54839;51.364;7.246;2023-11-21T12:20:33;10.60;99.90
68051;DHT22;54839;51.364;7.246;2023-11-21T12:23:04;10.40;99.90
68051;DHT22;54839;51.364;7.246;2023-11-21T12:25:31;10.40;99.90
68051;DHT22;54839;51.364;7.246;2023-11-21T12:27:58;10.40;99.90
68051;DHT22;54839;51.364;7.246;2023-11-21T12:30:30;10.30;99.90
68051;DHT22;54839;51.364;7.246;2023-11-21T12:33:01;10.30;99.90
68051;DHT22;54839;51.364;7.246;2023-11-21T12:35:32;10.30;99.90
68051;DHT22;54839;51.364;7.246;2023-11-21T12:37:59;10.30;99.90
68051;DHT22;54839;51.364;7.246;2023-11-21T12:40:26;10.10;99.90
68051;DHT22;54839;51.364;7.246;2023-11-21T12:42:53;10.10;99.90
68051;DHT22;54839;51.364;7.246;2023-11-21T12:45:24;10.10;99.90
68051;DHT22;54839;51.364;7.246;2023-11-21T12:48:19;10.00;99.90
68051;DHT22;54839;51.364;7.246;2023-11-21T12:50:49;10.10;99.90
68051;DHT22;54839;51.364;7.246;2023-11-21T12:53:18;9.90;99.90
68051;DHT22;54839;51.364;7.246;2023-11-21T12:55:44;9.90;99.90
68051;DHT22;54839;51.364;7.246;2023-11-21T12:58:15;9.80;99.90
68051;DHT22;54839;51.364;7.246;2023-11-21T13:00:46;9.90;99.90
68051;DHT22;54839;51.364;7.246;2023-11-21T13:03:14;10.00;99.90
68051;DHT22;54839;51.364;7.246;2023-11-21T13:05:46;9.80;99.90
68051;DHT22;54839;51.364;7.246;2023-11-21T13:08:16;9.60;99.90
68051;DHT22;54839;51.364;7.246;2023-11-21T13:10:45;9.50;99.90
68051;DHT22;54839;51.364;7.246;2023-11-21T13:13:13;9.40;99.90
68051;DHT22;54839;51.364;7.246;2023-11-21T13:18:14;9.60;99.90
68051;DHT22;54839;51.364;7.246;2023-11-21T13:20:41;9.40;99.90
68051;DHT22;54839;51.364;7.246;2023-11-21T13:23:09;9.30;99.90
68051;DHT22;54839;51.364;7.246;2023-11-21T13:25:37;9.30;99.90
68051;DHT22;54839;51.364;7.246;2023-11-21T13:28:04;9.30;99.90
68051;DHT22;54839;51.364;7.246;2023-11-21T13:30:30;9.30;99.90
68051;DHT22;54839;51.364;7.246;2023-11-21T13:32:59;9.30;99.90
68051;DHT22;54839;51.364;7.246;2023-11-21T13:35:32;9.20;99.90
68051;DHT22;54839;51.364;7.246;2023-11-21T13:38:13;9.20;99.90
68051;DHT22;54839;51.364;7.246;2023-11-21T13:40:41;9.10;99.90
68051;DHT22;54839;51.364;7.246;2023-11-21T13:43:10;9.10;99.90
68051;DHT22;54839;51.364;7.246;2023-11-21T13:45:40;9.00;99.90
68051;DHT22;54839;51.364;7.246;2023-11-21T13:48:06;8.90;99.90
68051;DHT22;54839;51.364;7.246;2023-11-21T13:50:42;9.00;99.90
68051;DHT22;54839;51.364;7.246;2023-11-21T13:53:14;9.00;99.90
68051;DHT22;54839;51.364;7.246;2023-11-21T13:55:52;9.00;99.90
68051;DHT22;54839;51.364;7.246;2023-11-21T13:58:24;9.00;99.90
68051;DHT22;54839;51.364;7.246;2023-11-21T14:01:08;9.00;99.90
68051;DHT22;54839;51.364;7.246;2023-11-21T14:03:52;8.90;99.90
68051;DHT22;54839;51.364;7.246;2023-11-21T14:06:23;9.00;99.90
68051;DHT22;54839;51.364;7.246;2023-11-21T14:08:56;9.00;99.90
68051;DHT22;54839;51.364;7.246;2023-11-21T14:11:22;8.90;99.90
68051;DHT22;54839;51.364;7.246;2023-11-21T14:13:48;8.90;99.90
68051;DHT22;54839;51.364;7.246;2023-11-21T14:16:14;8.90;99.90
68051;DHT22;54839;51.364;7.246;2023-11-21T14:18:42;8.90;99.90
68051;DHT22;54839;51.364;7.246;2023-11-21T14:21:18;9.00;99.90
68051;DHT22;54839;51.364;7.246;2023-11-21T14:23:44;9.00;99.90
68051;DHT22;54839;51.364;7.246;2023-11-21T14:26:11;9.00;99.90
68051;DHT22;54839;51.364;7.246;2023-11-21T14:28:39;9.00;99.90
68051;DHT22;54839;51.364;7.246;2023-11-21T14:31:04;9.00;99.90
68051;DHT22;54839;51.364;7.246;2023-11-21T14:33:30;9.00;99.90
68051;DHT22;54839;51.364;7.246;2023-11-21T14:35:56;8.90;99.90
68051;DHT22;54839;51.364;7.246;2023-11-21T14:38:23;8.90;99.90
68051;DHT22;54839;51.364;7.246;2023-11-21T14:40:48;8.90;99.90
68051;DHT22;54839;51.364;7.246;2023-11-21T14:43:14;8.80;99.90
68051;DHT22;54839;51.364;7.246;2023-11-21T14:45:41;8.90;99.90
68051;DHT22;54839;51.364;7.246;2023-11-21T14:48:06;8.90;99.90
68051;DHT22;54839;51.364;7.246;2023-11-21T14:50:37;8.90;99.90
68051;DHT22;54839;51.364;7.246;2023-11-21T14:53:09;8.90;99.90
68051;DHT22;54839;51.364;7.246;2023-11-21T14:55:35;8.90;99.90
68051;DHT22;54839;51.364;7.246;2023-11-21T14:58:03;8.70;99.90
68051;DHT22;54839;51.364;7.246;2023-11-21T15:00:29;8.80;99.90
68051;DHT22;54839;51.364;7.246;2023-11-21T15:03:04;8.70;99.90
68051;DHT22;54839;51.364;7.246;2023-11-21T15:05:30;8.70;99.90
68051;DHT22;54839;51.364;7.246;2023-11-21T15:07:56;8.80;99.90
68051;DHT22;54839;51.364;7.246;2023-11-21T15:10:34;8.80;99.90
68051;DHT22;54839;51.364;7.246;2023-11-21T15:13:11;8.80;99.90
68051;DHT22;54839;51.364;7.246;2023-11-21T15:15:37;8.80;99.90
68051;DHT22;54839;51.364;7.246;2023-11-21T15:18:03;8.80;99.90
68051;DHT22;54839;51.364;7.246;2023-11-21T15:20:29;8.80;99.90
68051;DHT22;54839;51.364;7.246;2023-11-21T15:22:55;8.70;99.90
68051;DHT22;54839;51.364;7.246;2023-11-21T15:25:21;8.70;99.90
68051;DHT22;54839;51.364;7.246;2023-11-21T15:27:47;8.50;99.90
68051;DHT22;54839;51.364;7.246;2023-11-21T15:30:15;8.60;99.90
68051;DHT22;54839;51.364;7.246;2023-11-21T15:32:45;8.70;99.90
68051;DHT22;54839;51.364;7.246;2023-11-21T15:35:11;8.60;99.90
68051;DHT22;54839;51.364;7.246;2023-11-21T15:37:40;8.50;99.90
68051;DHT22;54839;51.364;7.246;2023-11-21T15:40:06;8.50;99.90
68051;DHT22;54839;51.364;7.246;2023-11-21T15:42:34;8.50;99.90
68051;DHT22;54839;51.364;7.246;2023-11-21T15:45:01;8.40;99.90
68051;DHT22;54839;51.364;7.246;2023-11-21T15:47:27;8.30;99.90
68051;DHT22;54839;51.364;7.246;2023-11-21T15:49:52;8.40;99.90
68051;DHT22;54839;51.364;7.246;2023-11-21T15:52:18;8.40;99.90
68051;DHT22;54839;51.364;7.246;2023-11-21T15:54:44;8.40;99.90
68051;DHT22;54839;51.364;7.246;2023-11-21T15:57:11;8.40;99.90
68051;DHT22;54839;51.364;7.246;2023-11-21T15:59:40;8.30;99.90
68051;DHT22;54839;51.364;7.246;2023-11-21T16:02:07;8.20;99.90
68051;DHT22;54839;51.364;7.246;2023-11-21T16:04:33;8.20;99.90